首页
METAR-TAF:

METAR-TAF

机场 :

实兆远, 马来西亚

纬度: 04-13N, 经度: 100-42E, 海拔: 7米

当前天气观测

该预报发布于22分钟前的03:00 UTC
风速6节,风向东南,在北转东北南转西南之间变化
温度 32°C
湿度 67%
气压 1010 hPa
能见度10公里或以上
少量云层高于2100英尺

METAR: WMBA 200300Z 13006KT 030V200 9999 FEW021 32/25 Q1010

时间: 11:22 (03:22 UTC)


TAF: 丢失

超过4000个机场的气象观测和天气预报(METAR&TAF报告)。

可查询的气象台以黄色和红色小点在地图上表示。

将鼠标移到小点上方,可查看气象台名称。

然后点击查看天气观测和预报。

如需切换地图:点击带黑十字的绿色按钮放大地图;点击带横线的绿色按钮缩小地图;或者点击绿色箭头查看邻近地区的地图。


METAR-TAF: